KELZ

Wellsville Municipal Arpt,tarantine Field Airport

Wellsville, New York, USA
METAR KELZ 151912Z AUTO 22007KT 10SM SCT024 BKN030 OVC100 M05/M12 A2974 RMK AO2 T10501117
Observed Flight Rules
Dec-15 @ 19:12 UTC (38 minutes ago) Marginal Visual Flight Rules
Wind Visibility Clouds
220° at 7 knots 10 miles
  • Scattered at 2,400' AGL
  • Broken at 3,000' AGL
  • Overcast at 10,000' AGL
Temperatures Readings
Current -5°C / 23°F
Dewpoint -12°C / 10°F
Humidity 58%
Altimeter 29.74" Hg
Pressure 1007 hPa
Elevation 646
METAR KELZ 151912Z AUTO 22007KT 10SM SCT024 BKN030 OVC100 M05/M12 A2974 RMK AO2 T10501117
Observed Flight Rules
Dec-15 @ 19:12 UTC
(38 minutes ago)
MVFR
Wind Visibility
220° at 7 knots 10 miles
Clouds
  • Scattered at 2,400' AGL
  • Broken at 3,000' AGL
  • Overcast at 10,000' AGL
Temperature Dewpoint
-5°C / 23°F -12°C / 10°F
Humidity Altimeter Pressure
58% 29.74" Hg 1007 hPa